createdAt,value
2019-01-23T00:01:59.962Z,96724.72
2019-01-23T00:04:30.771Z,96724.49
2019-01-23T00:07:01.305Z,96721.59
2019-01-23T00:09:31.931Z,96718.53
2019-01-23T00:12:02.699Z,96715.53
2019-01-23T00:14:33.288Z,96707.92
2019-01-23T00:17:03.934Z,96705.72
2019-01-23T00:19:34.759Z,96699.45
2019-01-23T00:22:05.976Z,96695.13
2019-01-23T00:24:36.530Z,96697.34
2019-01-23T00:27:07.069Z,96695.31
2019-01-23T00:29:37.891Z,96694.18
2019-01-23T00:32:09.184Z,96688.99
2019-01-23T00:34:39.804Z,96685.03
2019-01-23T00:37:10.631Z,96683.96
2019-01-23T00:39:41.119Z,96679.42
2019-01-23T00:42:11.930Z,96675.38
2019-01-23T00:44:42.439Z,96668.98
2019-01-23T00:47:12.966Z,96668.46
2019-01-23T00:49:43.832Z,96669.03
2019-01-23T00:52:14.618Z,96661.80
2019-01-23T00:54:45.162Z,96657.43
2019-01-23T00:57:15.915Z,96661.33
2019-01-23T00:59:46.440Z,96652.05
2019-01-23T01:02:16.959Z,96655.98
2019-01-23T01:04:47.525Z,96650.77
2019-01-23T01:07:18.403Z,96652.89
2019-01-23T01:09:49.081Z,96649.52
2019-01-23T01:12:19.930Z,96644.73
2019-01-23T01:14:50.462Z,96638.70
2019-01-23T01:17:20.994Z,96637.08
2019-01-23T01:19:51.493Z,96642.58
2019-01-23T01:22:22.230Z,96641.92
2019-01-23T01:24:53.008Z,96637.33
2019-01-23T01:27:23.495Z,96626.92
2019-01-23T01:29:54.009Z,96625.56
2019-01-23T01:32:24.541Z,96611.36
2019-01-23T01:34:55.062Z,96616.64
2019-01-23T01:37:25.542Z,96618.74
2019-01-23T01:39:56.221Z,96612.70
2019-01-23T01:42:27.112Z,96614.20
2019-01-23T01:44:57.932Z,96607.50
2019-01-23T01:47:28.452Z,96600.39
2019-01-23T01:49:58.991Z,96602.67
2019-01-23T01:52:29.515Z,96600.59
2019-01-23T01:55:00.249Z,96594.73
2019-01-23T01:57:31.031Z,96589.73
2019-01-23T02:00:01.531Z,96585.70
2019-01-23T02:02:32.052Z,96589.94
2019-01-23T02:05:02.556Z,96588.16
2019-01-23T02:07:33.093Z,96580.26
2019-01-23T02:10:04.047Z,96583.66
2019-01-23T02:12:34.537Z,96577.14
2019-01-23T02:15:05.862Z,96575.12
2019-01-23T02:17:36.412Z,96573.83
2019-01-23T02:20:14.202Z,96574.25
2019-01-23T02:22:45.040Z,96565.17
2019-01-23T02:25:15.854Z,96561.94
2019-01-23T02:27:47.212Z,96561.34
2019-01-23T02:30:20.796Z,96556.22
2019-01-23T02:32:51.367Z,96556.03
2019-01-23T02:35:22.129Z,96550.80
2019-01-23T02:37:52.780Z,96549.14
2019-01-23T02:40:24.702Z,96540.41
2019-01-23T02:42:55.354Z,96535.80
2019-01-23T02:45:26.189Z,96527.54
2019-01-23T02:47:56.974Z,96521.42
2019-01-23T02:50:27.522Z,96526.76
2019-01-23T02:52:58.071Z,96517.61
2019-01-23T02:55:28.661Z,96514.27
2019-01-23T02:57:59.246Z,96509.69
2019-01-23T03:00:29.774Z,96510.73
2019-01-23T03:03:00.298Z,96507.61
2019-01-23T03:05:31.073Z,96501.51
2019-01-23T03:08:01.598Z,96503.72
2019-01-23T03:10:32.176Z,96493.72
2019-01-23T03:13:02.695Z,96481.86
2019-01-23T03:15:33.427Z,96485.63
2019-01-23T03:18:04.152Z,96484.11
2019-01-23T03:20:34.627Z,96487.21
2019-01-23T03:23:05.208Z,96480.37
2019-01-23T03:25:35.706Z,96483.91
2019-01-23T03:28:06.418Z,96476.25
2019-01-23T03:30:36.974Z,96468.15
2019-01-23T03:33:07.491Z,96468.22
2019-01-23T03:35:38.168Z,96464.98
2019-01-23T03:38:09.494Z,96465.27
2019-01-23T03:40:40.315Z,96465.76
2019-01-23T03:43:11.516Z,96463.87
2019-01-23T03:45:42.333Z,96460.44
2019-01-23T03:48:13.162Z,96455.83
2019-01-23T03:50:43.832Z,96452.35
2019-01-23T03:53:14.330Z,96452.36
2019-01-23T03:55:45.131Z,96446.50
2019-01-23T03:58:15.683Z,96445.94
2019-01-23T04:00:46.398Z,96449.80
2019-01-23T04:03:17.194Z,96454.30
2019-01-23T04:05:47.748Z,96455.38
2019-01-23T04:08:18.282Z,96450.22
2019-01-23T04:10:48.799Z,96442.77
2019-01-23T04:13:19.617Z,96448.16
2019-01-23T04:15:50.417Z,96443.19
2019-01-23T04:18:21.190Z,96443.22
2019-01-23T04:20:51.672Z,96449.56
2019-01-23T04:23:22.259Z,96447.05
2019-01-23T04:25:52.763Z,96450.71
2019-01-23T04:28:23.600Z,96441.65
2019-01-23T04:30:54.416Z,96440.30
2019-01-23T04:33:25.197Z,96436.80
2019-01-23T04:35:55.725Z,96427.61
2019-01-23T04:38:26.303Z,96427.20
2019-01-23T04:40:56.830Z,96419.73
2019-01-23T04:43:27.347Z,96421.33
2019-01-23T04:45:57.868Z,96414.88
2019-01-23T04:48:28.454Z,96413.89
2019-01-23T04:51:21.295Z,96408.78
2019-01-23T04:53:51.811Z,96401.92
2019-01-23T04:56:22.340Z,96397.71
2019-01-23T04:58:52.823Z,96396.22
2019-01-23T05:01:23.700Z,96394.83
2019-01-23T05:03:54.529Z,96391.71
2019-01-23T05:06:25.311Z,96390.94
2019-01-23T05:08:55.827Z,96387.42
2019-01-23T05:11:27.874Z,96384.14
2019-01-23T05:13:58.369Z,96381.86
2019-01-23T05:16:28.944Z,96378.03
2019-01-23T05:18:59.526Z,96384.81
2019-01-23T05:21:30.070Z,96377.02
2019-01-23T05:24:00.569Z,96372.31
2019-01-23T05:26:31.438Z,96368.37
2019-01-23T05:29:02.009Z,96368.72
2019-01-23T05:31:32.551Z,96367.98
2019-01-23T05:34:03.078Z,96364.55
2019-01-23T05:36:33.629Z,96363.53
2019-01-23T05:39:06.768Z,96360.78
2019-01-23T05:41:37.456Z,96360.20
2019-01-23T05:44:09.111Z,96361.77
2019-01-23T05:46:39.593Z,96361.52
2019-01-23T05:49:10.099Z,96364.25
2019-01-23T05:51:40.646Z,96361.06
2019-01-23T05:54:11.428Z,96361.00
2019-01-23T05:56:41.955Z,96360.33
2019-01-23T05:59:12.434Z,96357.68
2019-01-23T06:01:42.985Z,96356.30
2019-01-23T06:04:13.699Z,96364.78
2019-01-23T06:06:44.498Z,96363.22
2019-01-23T06:09:15.021Z,96364.02
2019-01-23T06:11:45.570Z,96363.50
2019-01-23T06:14:16.160Z,96364.25
2019-01-23T06:16:46.649Z,96364.94
2019-01-23T06:19:17.807Z,96368.09
2019-01-23T06:21:48.682Z,96370.16
2019-01-23T06:24:19.543Z,96366.64
2019-01-23T06:26:50.078Z,96363.14
2019-01-23T06:29:20.635Z,96367.67
2019-01-23T06:31:51.405Z,96367.61
2019-01-23T06:34:21.937Z,96360.94
2019-01-23T06:36:52.744Z,96361.86
2019-01-23T06:39:23.596Z,96363.64
2019-01-23T06:41:54.101Z,96356.27
2019-01-23T06:44:24.661Z,96359.62
2019-01-23T06:46:55.484Z,96360.45
2019-01-23T06:49:25.994Z,96359.84
2019-01-23T06:51:56.718Z,96358.03
2019-01-23T06:54:27.545Z,96354.92
2019-01-23T06:56:58.049Z,96355.72
2019-01-23T06:59:28.624Z,96352.33
2019-01-23T07:01:59.283Z,96350.18
2019-01-23T07:04:29.779Z,96345.98
2019-01-23T07:07:00.309Z,96350.08
2019-01-23T07:09:30.842Z,96342.70
2019-01-23T07:12:01.618Z,96347.77
2019-01-23T07:14:32.151Z,96348.13
2019-01-23T07:17:03.318Z,96341.05
2019-01-23T07:19:33.810Z,96338.89
2019-01-23T07:22:04.497Z,96340.27
2019-01-23T07:24:34.972Z,96333.62
2019-01-23T07:27:05.719Z,96344.31
2019-01-23T07:29:36.520Z,96346.47
2019-01-23T07:32:07.243Z,96345.91
2019-01-23T07:34:37.773Z,96335.36
2019-01-23T07:37:09.988Z,96336.81
2019-01-23T07:39:40.750Z,96331.50
2019-01-23T07:42:11.283Z,96334.45
2019-01-23T07:44:41.807Z,96332.05
2019-01-23T07:47:12.684Z,96334.98
2019-01-23T07:49:43.203Z,96335.42
2019-01-23T07:52:13.958Z,96329.83
2019-01-23T07:54:44.787Z,96339.73
2019-01-23T07:57:15.324Z,96331.14
2019-01-23T07:59:45.866Z,96327.96
2019-01-23T08:02:18.002Z,96329.69
2019-01-23T08:04:48.730Z,96320.26
2019-01-23T08:07:19.270Z,96327.09
2019-01-23T08:09:49.951Z,96323.47
2019-01-23T08:12:20.764Z,96316.88
2019-01-23T08:14:51.302Z,96311.28
2019-01-23T08:17:21.817Z,96306.38
2019-01-23T08:19:52.452Z,96311.05
2019-01-23T08:22:23.037Z,96306.20
2019-01-23T08:24:53.852Z,96313.83
2019-01-23T08:27:24.355Z,96315.59
2019-01-23T08:29:54.867Z,96308.93
2019-01-23T08:32:25.453Z,96307.89
2019-01-23T08:34:55.997Z,96315.34
2019-01-23T08:37:27.099Z,96315.50
2019-01-23T08:39:57.971Z,96312.11
2019-01-23T08:42:28.527Z,96314.06
2019-01-23T08:44:59.080Z,96318.62
2019-01-23T08:47:29.855Z,96307.51
2019-01-23T08:50:00.407Z,96310.80
2019-01-23T08:52:30.916Z,96308.22
2019-01-23T08:55:01.421Z,96304.33
2019-01-23T08:57:31.997Z,96317.09
2019-01-23T09:00:02.883Z,96310.91
2019-01-23T09:02:33.404Z,96303.75
2019-01-23T09:05:04.542Z,96310.91
2019-01-23T09:07:35.137Z,96302.08
2019-01-23T09:10:09.628Z,96306.23
2019-01-23T09:12:40.124Z,96320.18
2019-01-23T09:15:12.313Z,96308.66
2019-01-23T09:17:42.855Z,96307.19
2019-01-23T09:20:15.724Z,96301.52
2019-01-23T09:22:46.335Z,96303.62
2019-01-23T09:25:19.569Z,96301.14
2019-01-23T09:27:50.139Z,96305.50
2019-01-23T09:30:34.047Z,96302.95
2019-01-23T09:33:45.673Z,96303.91
2019-01-23T09:37:07.673Z,96296.33
2019-01-23T09:40:25.387Z,96293.94
2019-01-23T09:43:59.113Z,96299.13
2019-01-23T09:47:24.987Z,96296.47
2019-01-23T09:50:58.627Z,96298.13
2019-01-23T09:53:39.952Z,96299.89
2019-01-23T09:56:11.161Z,96289.02
2019-01-23T09:58:42.112Z,96289.75
2019-01-23T10:01:12.627Z,96290.64
2019-01-23T10:03:43.181Z,96292.98
2019-01-23T10:06:13.976Z,96295.68
2019-01-23T10:08:45.808Z,96297.52
2019-01-23T10:11:16.385Z,96294.40
2019-01-23T10:13:46.961Z,96302.45
2019-01-23T10:16:20.281Z,96299.12
2019-01-23T10:18:56.033Z,96303.23
2019-01-23T10:21:23.520Z,96301.86
2019-01-23T10:23:54.079Z,96302.90
2019-01-23T10:26:24.674Z,96293.14
2019-01-23T10:28:55.319Z,96291.94
2019-01-23T10:31:26.171Z,96285.08
2019-01-23T10:33:56.768Z,96284.99
2019-01-23T10:36:27.441Z,96289.23
2019-01-23T10:38:58.100Z,96284.54
2019-01-23T10:41:31.643Z,96282.47
2019-01-23T10:44:02.235Z,96281.85
2019-01-23T10:46:33.041Z,96285.20
2019-01-23T10:49:03.574Z,96282.26
2019-01-23T10:51:34.265Z,96280.61
2019-01-23T10:54:05.220Z,96290.48
2019-01-23T10:56:36.167Z,96287.80
2019-01-23T10:59:06.693Z,96285.91
2019-01-23T11:01:37.258Z,96283.61
2019-01-23T11:04:07.957Z,96280.72
2019-01-23T11:06:38.501Z,96283.18
2019-01-23T11:09:10.919Z,96281.19
2019-01-23T11:11:41.466Z,96281.65
2019-01-23T11:14:12.120Z,96279.38
2019-01-23T11:16:42.668Z,96279.92
2019-01-23T11:19:13.625Z,96274.87
2019-01-23T11:21:44.337Z,96270.66
2019-01-23T11:24:15.233Z,96265.59
2019-01-23T11:26:46.061Z,96267.23
2019-01-23T11:29:16.639Z,96268.44
2019-01-23T11:31:47.195Z,96273.89
2019-01-23T11:34:17.784Z,96270.48
2019-01-23T11:36:48.352Z,96264.86
2019-01-23T11:39:19.195Z,96264.66
2019-01-23T11:41:49.701Z,96270.58
2019-01-23T11:44:20.209Z,96268.63
2019-01-23T11:46:50.768Z,96268.61
2019-01-23T11:49:21.450Z,96270.29
2019-01-23T11:51:52.312Z,96271.47
2019-01-23T11:54:25.889Z,96257.05
2019-01-23T11:56:56.443Z,96263.17
2019-01-23T11:59:27.346Z,96265.16
2019-01-23T12:01:58.245Z,96265.45
2019-01-23T12:04:28.775Z,96264.22
2019-01-23T12:06:59.428Z,96266.98
2019-01-23T12:09:30.264Z,96271.29
2019-01-23T12:12:00.803Z,96263.59
2019-01-23T12:14:31.323Z,96272.02
2019-01-23T12:17:02.146Z,96263.24
2019-01-23T12:19:33.007Z,96265.72
2019-01-23T12:22:03.589Z,96257.81
2019-01-23T12:24:34.366Z,96258.75
2019-01-23T12:27:05.287Z,96258.32
2019-01-23T12:29:36.096Z,96263.95
2019-01-23T12:32:06.882Z,96264.12
2019-01-23T12:34:37.432Z,96262.45
2019-01-23T12:37:08.050Z,96263.39
2019-01-23T12:39:38.584Z,96269.42
2019-01-23T12:42:10.722Z,96261.48
2019-01-23T12:44:41.363Z,96264.12
2019-01-23T12:47:12.246Z,96259.72
2019-01-23T12:49:42.839Z,96257.16
2019-01-23T12:52:13.747Z,96263.91
2019-01-23T12:54:44.421Z,96256.80
2019-01-23T12:57:15.285Z,96262.20
2019-01-23T12:59:45.801Z,96261.44
2019-01-23T13:02:16.348Z,96255.25
2019-01-23T13:04:47.194Z,96254.41
2019-01-23T13:07:17.996Z,96251.85
2019-01-23T13:09:48.591Z,96254.11
2019-01-23T13:12:19.438Z,96254.32
2019-01-23T13:14:50.268Z,96252.78
2019-01-23T13:17:20.807Z,96250.89
2019-01-23T13:19:51.381Z,96243.22
2019-01-23T13:22:22.015Z,96242.58
2019-01-23T13:24:52.713Z,96243.63
2019-01-23T13:27:23.575Z,96243.83
2019-01-23T13:29:54.387Z,96247.18
2019-01-23T13:32:24.903Z,96248.35
2019-01-23T13:34:55.457Z,96253.62
2019-01-23T13:37:26.679Z,96262.05
2019-01-23T13:39:57.488Z,96261.55
2019-01-23T13:42:28.504Z,96260.80
2019-01-23T13:44:59.384Z,96263.44
2019-01-23T13:47:29.924Z,96266.80
2019-01-23T13:50:00.507Z,96270.19
2019-01-23T13:52:31.406Z,96270.03
2019-01-23T13:55:02.137Z,96277.30
2019-01-23T13:57:32.609Z,96277.47
2019-01-23T14:00:03.752Z,96281.31
2019-01-23T14:02:34.404Z,96284.83
2019-01-23T14:05:05.522Z,96287.63
2019-01-23T14:07:36.380Z,96287.40
2019-01-23T14:10:09.548Z,96293.64
2019-01-23T14:12:40.146Z,96290.55
2019-01-23T14:15:16.442Z,96290.44
2019-01-23T14:17:47.007Z,96290.52
2019-01-23T14:20:18.063Z,96289.73
2019-01-23T14:22:48.612Z,96290.03
2019-01-23T14:25:19.246Z,96292.81
2019-01-23T14:27:49.822Z,96292.33
2019-01-23T14:30:44.837Z,96298.63
2019-01-23T14:33:15.661Z,96296.41
2019-01-23T14:35:47.679Z,96293.75
2019-01-23T14:38:18.510Z,96290.88
2019-01-23T14:40:49.120Z,96293.00
2019-01-23T14:43:19.760Z,96293.66
2019-01-23T14:45:50.604Z,96304.86
2019-01-23T14:48:21.540Z,96300.43
2019-01-23T14:50:52.107Z,96300.17
2019-01-23T14:53:22.671Z,96309.25
2019-01-23T14:55:53.545Z,96305.13
2019-01-23T14:58:24.136Z,96311.99
2019-01-23T15:00:54.731Z,96312.00
2019-01-23T15:03:25.566Z,96306.25
2019-01-23T15:05:56.199Z,96310.05
2019-01-23T15:08:26.779Z,96311.90
2019-01-23T15:10:57.631Z,96313.22
2019-01-23T15:13:28.859Z,96316.70
2019-01-23T15:16:00.114Z,96313.30
2019-01-23T15:18:30.780Z,96310.48
2019-01-23T15:21:01.626Z,96311.75
2019-01-23T15:23:32.574Z,96319.22
2019-01-23T15:26:03.183Z,96327.14
2019-01-23T15:28:33.806Z,96322.53
2019-01-23T15:31:04.363Z,96327.55
2019-01-23T15:33:34.921Z,96328.50
2019-01-23T15:36:05.900Z,96334.34
2019-01-23T15:38:36.648Z,96334.18
2019-01-23T15:41:07.209Z,96333.86
2019-01-23T15:43:37.752Z,96336.20
2019-01-23T15:46:08.449Z,96339.73
2019-01-23T15:48:39.356Z,96342.22
2019-01-23T15:51:11.640Z,96342.25
2019-01-23T15:53:42.184Z,96344.91
2019-01-23T15:56:12.752Z,96350.37
2019-01-23T15:58:43.658Z,96354.68
2019-01-23T16:01:14.557Z,96355.25
2019-01-23T16:03:46.954Z,96355.11
2019-01-23T16:06:19.368Z,96356.44
2019-01-23T16:08:51.573Z,96360.41
2019-01-23T16:11:22.222Z,96360.53
2019-01-23T16:13:52.864Z,96363.92
2019-01-23T16:16:24.104Z,96368.19
2019-01-23T16:18:55.762Z,96370.38
2019-01-23T16:21:26.371Z,96377.66
2019-01-23T16:23:56.952Z,96377.14
2019-01-23T16:26:29.851Z,96376.67
2019-01-23T16:29:02.206Z,96379.09
2019-01-23T16:31:34.458Z,96384.28
2019-01-23T16:34:05.099Z,96383.97
2019-01-23T16:36:35.990Z,96391.97
2019-01-23T16:39:09.405Z,96392.98
2019-01-23T16:41:40.209Z,96392.70
2019-01-23T16:44:11.263Z,96395.34
2019-01-23T16:46:41.865Z,96399.28
2019-01-23T16:49:13.086Z,96404.01
2019-01-23T16:51:44.032Z,96400.94
2019-01-23T16:54:15.248Z,96403.82
2019-01-23T16:56:46.142Z,96407.60
2019-01-23T16:59:17.436Z,96404.66
2019-01-23T17:01:48.145Z,96413.44
2019-01-23T17:04:18.974Z,96420.45
2019-01-23T17:06:49.628Z,96419.33
2019-01-23T17:09:20.187Z,96421.08
2019-01-23T17:11:50.913Z,96421.10
2019-01-23T17:14:23.041Z,96429.02
2019-01-23T17:16:55.356Z,96432.30
2019-01-23T17:19:26.233Z,96433.75
2019-01-23T17:21:57.002Z,96437.87
2019-01-23T17:24:27.855Z,96444.19
2019-01-23T17:27:00.612Z,96442.14
2019-01-23T17:29:31.184Z,96446.96
2019-01-23T17:32:01.911Z,96448.82
2019-01-23T17:34:32.559Z,96447.29
2019-01-23T17:37:03.136Z,96449.37
2019-01-23T17:39:33.869Z,96454.39
2019-01-23T17:42:04.569Z,96453.33
2019-01-23T17:44:35.191Z,96457.23
2019-01-23T17:47:07.788Z,96458.28
2019-01-23T17:49:38.433Z,96460.27
2019-01-23T17:52:09.029Z,96461.55
2019-01-23T17:54:39.920Z,96457.02
2019-01-23T17:57:11.329Z,96455.68
2019-01-23T17:59:41.899Z,96464.42
2019-01-23T18:02:13.742Z,96470.18
2019-01-23T18:04:51.255Z,96473.56
2019-01-23T18:07:22.829Z,96473.48
2019-01-23T18:10:03.777Z,96472.13
2019-01-23T18:12:34.601Z,96476.93
2019-01-23T18:15:07.713Z,96482.39
2019-01-23T18:17:38.361Z,96483.04
2019-01-23T18:20:18.252Z,96481.34
2019-01-23T18:22:51.196Z,96476.44
2019-01-23T18:25:23.210Z,96486.09
2019-01-23T18:27:54.130Z,96485.45
2019-01-23T18:31:17.712Z,96480.84
2019-01-23T18:34:35.870Z,96490.63
2019-01-23T18:37:26.491Z,96494.89
2019-01-23T18:40:47.134Z,96495.33
2019-01-23T18:44:21.968Z,96493.65
2019-01-23T18:47:28.631Z,96498.30
2019-01-23T18:50:58.709Z,96506.66
2019-01-23T18:53:29.298Z,96511.28
2019-01-23T18:56:02.693Z,96514.12
2019-01-23T18:58:33.231Z,96518.66
2019-01-23T19:01:04.027Z,96520.09
2019-01-23T19:03:34.866Z,96520.27
2019-01-23T19:06:05.602Z,96525.77
2019-01-23T19:08:37.987Z,96524.45
2019-01-23T19:11:10.086Z,96523.16
2019-01-23T19:13:42.682Z,96526.73
2019-01-23T19:16:13.581Z,96527.23
2019-01-23T19:18:44.173Z,96529.73
2019-01-23T19:21:15.426Z,96534.94
2019-01-23T19:23:46.242Z,96540.20
2019-01-23T19:26:17.152Z,96542.48
2019-01-23T19:28:48.092Z,96540.66
2019-01-23T19:31:19.056Z,96546.41
2019-01-23T19:33:49.776Z,96548.66
2019-01-23T19:36:20.697Z,96545.16
2019-01-23T19:38:51.434Z,96550.41
2019-01-23T19:41:22.346Z,96544.63
2019-01-23T19:43:53.173Z,96553.76
2019-01-23T19:46:24.067Z,96550.24
2019-01-23T19:48:54.656Z,96550.80
2019-01-23T19:51:25.333Z,96552.61
2019-01-23T19:53:56.267Z,96558.99
2019-01-23T19:56:27.111Z,96556.66
2019-01-23T19:58:57.734Z,96555.08
2019-01-23T20:01:28.344Z,96560.23
2019-01-23T20:03:59.149Z,96561.13
2019-01-23T20:06:29.795Z,96564.53
2019-01-23T20:09:00.458Z,96566.64
2019-01-23T20:11:31.400Z,96570.89
2019-01-23T20:14:02.173Z,96572.34
2019-01-23T20:16:33.109Z,96566.22
2019-01-23T20:19:07.698Z,96573.27
2019-01-23T20:21:38.310Z,96579.23
2019-01-23T20:24:08.917Z,96578.77
2019-01-23T20:26:41.519Z,96582.29
2019-01-23T20:29:12.371Z,96587.42
2019-01-23T20:31:43.205Z,96591.89
2019-01-23T20:34:13.904Z,96596.13
2019-01-23T20:36:44.511Z,96593.44
2019-01-23T20:39:15.593Z,96602.78
2019-01-23T20:41:46.393Z,96609.44
2019-01-23T20:44:17.241Z,96600.48
2019-01-23T20:46:48.163Z,96610.66
2019-01-23T20:49:18.752Z,96608.45
2019-01-23T20:51:49.453Z,96611.51
2019-01-23T20:54:20.401Z,96608.09
2019-01-23T20:56:51.234Z,96612.62
2019-01-23T20:59:21.796Z,96608.33
2019-01-23T21:01:52.436Z,96611.38
2019-01-23T21:04:23.634Z,96612.03
2019-01-23T21:06:54.467Z,96617.05
2019-01-23T21:09:25.412Z,96621.60
2019-01-23T21:11:56.318Z,96627.06
2019-01-23T21:14:27.285Z,96624.35
2019-01-23T21:16:58.114Z,96625.84
2019-01-23T21:19:29.180Z,96626.09
2019-01-23T21:21:59.767Z,96625.26
2019-01-23T21:24:30.494Z,96624.36
2019-01-23T21:27:01.269Z,96627.45
2019-01-23T21:29:32.266Z,96630.72
2019-01-23T21:32:02.815Z,96628.66
2019-01-23T21:34:33.392Z,96631.99
2019-01-23T21:37:04.063Z,96636.62
2019-01-23T21:39:34.654Z,96642.47
2019-01-23T21:42:05.340Z,96645.17
2019-01-23T21:44:36.230Z,96648.77
2019-01-23T21:47:06.846Z,96644.98
2019-01-23T21:49:37.408Z,96641.48
2019-01-23T21:52:08.153Z,96651.48
2019-01-23T21:54:38.733Z,96650.45
2019-01-23T21:57:09.672Z,96654.49
2019-01-23T21:59:40.363Z,96661.11
2019-01-23T22:02:11.656Z,96661.42
2019-01-23T22:04:42.344Z,96658.51
2019-01-23T22:07:13.613Z,96665.27
2019-01-23T22:09:44.606Z,96670.98
2019-01-23T22:12:15.567Z,96668.36
2019-01-23T22:14:46.295Z,96675.72
2019-01-23T22:17:16.902Z,96673.62
2019-01-23T22:19:47.530Z,96685.11
2019-01-23T22:22:18.352Z,96689.80
2019-01-23T22:24:48.856Z,96692.05
2019-01-23T22:27:19.727Z,96689.60
2019-01-23T22:29:50.396Z,96701.81
2019-01-23T22:32:20.936Z,96701.35
2019-01-23T22:34:51.601Z,96700.13
2019-01-23T22:37:22.424Z,96702.14
2019-01-23T22:39:53.019Z,96705.81
2019-01-23T22:42:23.755Z,96708.94
2019-01-23T22:44:54.374Z,96706.73
2019-01-23T22:47:24.932Z,96715.95
2019-01-23T22:49:55.490Z,96714.23
2019-01-23T22:52:26.644Z,96715.18
2019-01-23T22:54:57.487Z,96722.77
2019-01-23T22:57:28.340Z,96733.06
2019-01-23T22:59:58.878Z,96730.73
2019-01-23T23:02:29.503Z,96724.41
2019-01-23T23:05:00.378Z,96730.51
2019-01-23T23:07:30.908Z,96732.52
2019-01-23T23:10:01.652Z,96739.81
2019-01-23T23:12:32.587Z,96737.84
2019-01-23T23:15:03.465Z,96744.14
2019-01-23T23:17:34.287Z,96755.69
2019-01-23T23:20:05.598Z,96751.23
2019-01-23T23:22:36.408Z,96756.44
2019-01-23T23:25:08.040Z,96754.41
2019-01-23T23:27:39.567Z,96766.81
2019-01-23T23:30:13.682Z,96767.75
2019-01-23T23:32:44.454Z,96773.88
2019-01-23T23:35:15.037Z,96772.61
2019-01-23T23:37:45.597Z,96771.56
2019-01-23T23:40:16.409Z,96770.55
2019-01-23T23:42:46.959Z,96778.52
2019-01-23T23:45:18.005Z,96784.97
2019-01-23T23:47:48.665Z,96782.53
2019-01-23T23:50:19.786Z,96782.28
2019-01-23T23:52:50.477Z,96790.06
2019-01-23T23:55:21.326Z,96790.98
2019-01-23T23:57:51.824Z,96788.67
